EDT,Max TemperatureF,Mean TemperatureF,Min TemperatureF,Max Dew PointF,MeanDew PointF,Min DewpointF,Max Humidity, Mean Humidity, Min Humidity, Max Sea Level PressureIn, Mean Sea Level PressureIn, Min Sea Level PressureIn, Max VisibilityMiles, Mean VisibilityMiles, Min VisibilityMiles, Max Wind SpeedMPH, Mean Wind SpeedMPH, Max Gust SpeedMPH,PrecipitationIn, CloudCover, Events, WindDirDegrees
2013-4-1,42,34,26,35,28,18,92,76,44,29.78,29.60,29.44,,,,10,6,23,0.13,,,190
2013-4-2,24,20,14,20,9,3,85,66,50,29.70,29.64,29.53,,,,10,7,26,0.03,,,231
2013-4-3,26,18,12,15,10,4,85,66,53,29.90,29.75,29.67,,,,10,7,28,0.01,,,241
2013-4-4,42,30,18,34,11,3,100,49,27,30.09,29.97,29.89,,,,18,8,26,0.02,,,222
2013-4-5,40,33,26,30,25,14,88,70,55,29.88,29.77,29.68,,,,12,6,33,0.01,,,199
2013-4-6,29,22,16,15,7,1,77,53,31,30.30,30.08,29.82,,,,12,6,24,0.00,,,275
2013-4-7,41,26,12,28,15,5,83,57,37,30.31,30.09,29.81,,,,18,5,31,0.01,,,155
2013-4-8,46,35,27,36,31,26,96,79,54,30.14,29.97,29.79,,,,14,7,18,0.00,,,173
2013-4-9,34,31,28,33,28,26,100,92,82,30.15,30.02,29.95,,,,6,3,,0.43,,,-1
2013-4-10,46,37,29,34,28,22,91,66,41,29.96,29.92,29.88,,,,5,2,,0.01,,,-1
2013-4-11,36,30,22,21,11,5,69,49,28,30.25,30.09,29.95,,,,10,3,25,0.00,,,313
2013-4-12,39,26,14,32,15,8,100,67,28,30.34,30.15,29.53,,,,9,3,22,0.14,,,77
2013-4-13,39,34,30,31,30,29,93,79,68,29.99,29.89,29.84,,,,8,4,,0.03,,,70
2013-4-14,43,36,32,36,36,35,90,85,80,30.17,29.98,29.88,,,,5,1,15,0.19,,,-1
2013-4-15,50,40,31,34,31,29,84,64,49,30.40,30.31,30.20,,,,6,1,,0.00,,,-1
2013-4-16,48,42,36,42,35,31,97,79,62,30.29,30.05,29.78,,,,18,11,26,0.22,,,169
2013-4-17,49,37,27,33,22,6,84,56,19,30.39,30.13,29.90,,,,13,5,26,0.02,,,299
2013-4-18,45,33,22,29,21,14,91,60,32,30.51,30.30,29.93,,,,18,3,30,0.02,,,156
2013-4-19,68,54,41,52,42,30,82,63,48,29.91,29.71,29.43,,,,17,12,31,0.00,,,167
2013-4-20,51,46,33,54,32,26,89,72,50,30.06,29.70,29.44,,,,16,8,30,0.35,,,212
2013-4-21,42,33,23,25,16,7,86,54,25,30.73,30.47,30.10,,,,8,4,18,0.01,,,280
2013-4-22,51,34,19,22,16,7,100,51,18,30.85,30.73,30.62,,,,13,2,22,0.01,,,153
2013-4-23,54,38,24,36,19,5,99,50,15,30.63,30.48,30.27,,,,14,4,22,0.02,,,142
2013-4-24,62,48,36,46,41,33,100,79,59,30.25,29.97,29.68,,,,8,4,16,0.00,,,116
2013-4-25,49,38,27,49,30,22,100,65,38,30.31,29.96,29.62,,,,18,10,31,0.02,,,205
2013-4-26,56,41,27,29,22,14,90,52,20,30.52,30.44,30.34,,,,6,1,13,0.01,,,-1
2013-4-27,61,44,30,33,26,19,88,50,22,30.47,30.39,30.28,,,,5,0,14,0.01,,,-1
2013-4-28,66,46,28,36,30,24,100,53,23,30.38,30.29,30.18,,,,8,1,16,0.01,,,190
2013-4-29,70,50,30,35,30,26,100,40,21,30.29,30.21,30.13,,,,10,3,18,0.35,,,170
2013-4-30,72,50,31,41,32,25,88,47,18,30.33,30.28,30.20,,,,12,3,23,0.14,,,156